createdAt,value
2022-07-27T00:00:13.073Z,1.80
2022-07-27T00:01:15.727Z,1.92
2022-07-27T00:02:18.508Z,1.66
2022-07-27T00:03:21.481Z,1.62
2022-07-27T00:04:24.346Z,1.92
2022-07-27T00:05:27.349Z,1.86
2022-07-27T00:06:30.120Z,1.80
2022-07-27T00:07:32.988Z,1.77
2022-07-27T00:08:36.791Z,1.64
2022-07-27T00:09:39.655Z,1.65
2022-07-27T00:10:42.632Z,1.70
2022-07-27T00:11:45.411Z,1.98
2022-07-27T00:12:48.492Z,2.15
2022-07-27T00:13:51.362Z,1.81
2022-07-27T00:14:54.242Z,1.76
2022-07-27T00:15:57.227Z,1.75
2022-07-27T00:16:59.786Z,1.78
2022-07-27T00:18:02.653Z,1.77
2022-07-27T00:19:08.990Z,1.53
2022-07-27T00:20:09.639Z,1.46
2022-07-27T00:21:12.299Z,1.55
2022-07-27T00:22:14.869Z,1.48
2022-07-27T00:23:18.055Z,1.91
2022-07-27T00:24:20.718Z,1.75
2022-07-27T00:25:23.616Z,1.68
2022-07-27T00:26:26.368Z,1.68
2022-07-27T00:27:29.244Z,1.42
2022-07-27T00:28:31.815Z,1.46
2022-07-27T00:29:34.488Z,1.67
2022-07-27T00:30:37.062Z,1.68
2022-07-27T00:31:40.076Z,1.70
2022-07-27T00:32:42.803Z,1.36
2022-07-27T00:33:45.567Z,1.54
2022-07-27T00:34:48.142Z,1.82
2022-07-27T00:35:50.915Z,1.48
2022-07-27T00:36:53.587Z,1.53
2022-07-27T00:37:56.160Z,1.82
2022-07-27T00:39:00.349Z,1.59
2022-07-27T00:40:02.924Z,1.47
2022-07-27T00:41:05.688Z,1.58
2022-07-27T00:42:08.361Z,1.60
2022-07-27T00:43:10.943Z,2.06
2022-07-27T00:44:13.801Z,1.95
2022-07-27T00:45:16.569Z,1.23
2022-07-27T00:46:19.405Z,1.52
2022-07-27T00:47:22.021Z,1.78
2022-07-27T00:48:24.786Z,1.81
2022-07-27T00:49:29.104Z,1.55
2022-07-27T00:50:31.768Z,1.44
2022-07-27T00:51:34.442Z,1.42
2022-07-27T00:52:37.110Z,1.24
2022-07-27T00:53:39.779Z,1.51
2022-07-27T00:54:42.454Z,1.59
2022-07-27T00:55:45.014Z,1.70
2022-07-27T00:56:47.893Z,1.35
2022-07-27T00:57:58.023Z,2.10
2022-07-27T00:58:55.074Z,2.42
2022-07-27T00:59:57.940Z,2.37
2022-07-27T01:01:00.612Z,2.40
2022-07-27T01:02:03.780Z,2.56
2022-07-27T01:03:09.015Z,2.36
2022-07-27T01:04:10.772Z,1.86
2022-07-27T01:05:13.648Z,1.45
2022-07-27T01:06:16.225Z,1.96
2022-07-27T01:07:18.999Z,1.84
2022-07-27T01:08:21.577Z,1.58
2022-07-27T01:09:24.326Z,1.65
2022-07-27T01:10:26.901Z,1.45
2022-07-27T01:11:29.574Z,1.46
2022-07-27T01:12:32.255Z,1.72
2022-07-27T01:13:34.803Z,1.79
2022-07-27T01:14:37.570Z,1.85
2022-07-27T01:15:40.467Z,2.12
2022-07-27T01:16:43.226Z,2.38
2022-07-27T01:17:45.904Z,2.02
2022-07-27T01:18:48.464Z,1.92
2022-07-27T01:19:51.032Z,1.87
2022-07-27T01:20:53.798Z,1.69
2022-07-27T01:21:56.583Z,2.18
2022-07-27T01:22:59.140Z,1.74
2022-07-27T01:24:01.712Z,1.78
2022-07-27T01:25:04.293Z,1.67
2022-07-27T01:26:07.152Z,2.02
2022-07-27T01:27:09.721Z,1.81
2022-07-27T01:28:12.391Z,1.66
2022-07-27T01:29:15.383Z,1.37
2022-07-27T01:30:18.241Z,1.70
2022-07-27T01:31:21.565Z,1.38
2022-07-27T01:32:24.304Z,1.62
2022-07-27T01:33:27.276Z,1.65
2022-07-27T01:34:30.049Z,1.53
2022-07-27T01:35:33.026Z,1.45
2022-07-27T01:36:35.807Z,1.57
2022-07-27T01:37:38.668Z,1.77
2022-07-27T01:38:43.278Z,3.39
2022-07-27T01:39:46.175Z,2.15
2022-07-27T01:40:49.031Z,2.56
2022-07-27T01:41:51.809Z,3.12
2022-07-27T01:42:54.582Z,1.71
2022-07-27T01:43:57.352Z,1.47
2022-07-27T01:45:00.023Z,1.52
2022-07-27T01:46:02.680Z,1.57
2022-07-27T01:47:14.457Z,1.60
2022-07-27T01:48:09.463Z,1.79
2022-07-27T01:49:12.678Z,1.83
2022-07-27T01:50:15.726Z,1.85
2022-07-27T01:51:18.391Z,1.87
2022-07-27T01:52:20.964Z,1.89
2022-07-27T01:53:23.643Z,1.76
2022-07-27T01:54:26.405Z,1.59
2022-07-27T01:55:30.318Z,1.99
2022-07-27T01:56:33.592Z,1.69
2022-07-27T01:57:36.929Z,1.52
2022-07-27T01:58:40.039Z,1.52
2022-07-27T01:59:43.731Z,1.58
2022-07-27T02:00:46.842Z,1.42
2022-07-27T02:01:49.812Z,1.55
2022-07-27T02:02:52.778Z,1.88
2022-07-27T02:03:55.762Z,1.49
2022-07-27T02:04:58.605Z,1.82
2022-07-27T02:06:01.511Z,1.58
2022-07-27T02:07:04.177Z,1.62
2022-07-27T02:08:06.957Z,2.13
2022-07-27T02:09:10.092Z,1.63
2022-07-27T02:10:13.119Z,1.82
2022-07-27T02:11:15.780Z,1.52
2022-07-27T02:12:18.847Z,1.52
2022-07-27T02:13:22.696Z,1.45
2022-07-27T02:14:26.049Z,1.29
2022-07-27T02:15:28.977Z,1.68
2022-07-27T02:16:33.400Z,1.63
2022-07-27T02:17:36.498Z,1.54
2022-07-27T02:18:39.378Z,1.92
2022-07-27T02:19:42.361Z,2.05
2022-07-27T02:20:45.737Z,1.68
2022-07-27T02:21:48.523Z,1.88
2022-07-27T02:22:51.181Z,1.72
2022-07-27T02:23:54.175Z,1.95
2022-07-27T02:24:56.931Z,1.41
2022-07-27T02:26:00.139Z,1.46
2022-07-27T02:27:02.789Z,1.44
2022-07-27T02:28:05.574Z,1.62
2022-07-27T02:29:08.597Z,1.52
2022-07-27T02:30:11.323Z,1.88
2022-07-27T02:31:14.186Z,2.08
2022-07-27T02:32:16.856Z,1.65
2022-07-27T02:33:19.808Z,1.67
2022-07-27T02:34:22.709Z,1.55
2022-07-27T02:35:25.382Z,1.64
2022-07-27T02:36:28.353Z,1.70
2022-07-27T02:37:31.239Z,1.52
2022-07-27T02:38:34.221Z,1.50
2022-07-27T02:39:37.081Z,1.55
2022-07-27T02:40:39.963Z,1.73
2022-07-27T02:41:42.835Z,1.55
2022-07-27T02:42:45.611Z,1.84
2022-07-27T02:43:48.590Z,2.22
2022-07-27T02:44:51.569Z,1.57
2022-07-27T02:45:54.529Z,1.53
2022-07-27T02:46:57.312Z,1.54
2022-07-27T02:47:59.881Z,1.34
2022-07-27T02:49:15.376Z,1.47
2022-07-27T02:50:18.833Z,1.53
2022-07-27T02:51:21.812Z,1.49
2022-07-27T02:52:25.091Z,1.45
2022-07-27T02:53:28.080Z,1.55
2022-07-27T02:54:31.056Z,1.78
2022-07-27T02:55:33.920Z,1.59
2022-07-27T02:56:36.805Z,1.69
2022-07-27T02:57:39.674Z,1.38
2022-07-27T02:58:42.658Z,1.51
2022-07-27T02:59:45.628Z,1.36
2022-07-27T03:00:48.415Z,1.55
2022-07-27T03:01:51.268Z,1.49
2022-07-27T03:02:54.256Z,1.62
2022-07-27T03:03:56.853Z,1.58
2022-07-27T03:04:59.479Z,1.58
2022-07-27T03:06:02.262Z,1.72
2022-07-27T03:07:04.929Z,1.58
2022-07-27T03:08:07.712Z,1.58
2022-07-27T03:09:10.950Z,1.58
2022-07-27T03:10:13.762Z,1.49
2022-07-27T03:11:16.532Z,1.47
2022-07-27T03:12:19.305Z,1.54
2022-07-27T03:13:21.969Z,1.60
2022-07-27T03:14:24.639Z,2.18
2022-07-27T03:15:27.682Z,2.28
2022-07-27T03:16:30.597Z,1.93
2022-07-27T03:17:33.369Z,2.20
2022-07-27T03:18:36.441Z,2.80
2022-07-27T03:19:39.223Z,1.66
2022-07-27T03:20:42.089Z,1.82
2022-07-27T03:21:45.167Z,2.17
2022-07-27T03:22:48.252Z,2.38
2022-07-27T03:23:51.237Z,2.92
2022-07-27T03:24:54.199Z,4.00
2022-07-27T03:25:57.081Z,2.58
2022-07-27T03:26:59.749Z,1.38
2022-07-27T03:28:04.425Z,1.47
2022-07-27T03:29:07.037Z,1.84
2022-07-27T03:30:09.926Z,2.08
2022-07-27T03:31:12.578Z,2.11
2022-07-27T03:32:15.150Z,1.66
2022-07-27T03:33:17.917Z,1.68
2022-07-27T03:34:20.888Z,1.51
2022-07-27T03:35:23.673Z,1.72
2022-07-27T03:36:26.444Z,1.64
2022-07-27T03:37:29.113Z,1.78
2022-07-27T03:38:31.887Z,1.49
2022-07-27T03:39:34.971Z,1.46
2022-07-27T03:40:37.545Z,1.43
2022-07-27T03:41:40.199Z,1.65
2022-07-27T03:42:42.968Z,1.40
2022-07-27T03:43:45.839Z,1.35
2022-07-27T03:44:49.150Z,1.52
2022-07-27T03:45:52.177Z,1.54
2022-07-27T03:46:54.881Z,1.43
2022-07-27T03:47:57.661Z,1.33
2022-07-27T03:49:00.261Z,1.41
2022-07-27T03:50:03.398Z,1.61
2022-07-27T03:51:06.169Z,1.78
2022-07-27T03:52:10.253Z,1.51
2022-07-27T03:53:13.050Z,1.16
2022-07-27T03:54:15.928Z,1.43
2022-07-27T03:55:18.799Z,1.35
2022-07-27T03:56:21.478Z,1.60
2022-07-27T03:57:24.245Z,1.65
2022-07-27T03:58:27.233Z,1.33
2022-07-27T03:59:29.789Z,1.46
2022-07-27T04:00:32.660Z,1.75
2022-07-27T04:01:35.435Z,1.60
2022-07-27T04:02:38.265Z,2.06
2022-07-27T04:03:44.452Z,1.34
2022-07-27T04:04:47.237Z,1.56
2022-07-27T04:05:52.673Z,1.32
2022-07-27T04:06:55.443Z,1.65
2022-07-27T04:07:58.208Z,1.64
2022-07-27T04:09:08.477Z,1.37
2022-07-27T04:10:07.977Z,1.27
2022-07-27T04:11:11.434Z,1.22
2022-07-27T04:12:16.643Z,1.35
2022-07-27T04:13:19.249Z,1.34
2022-07-27T04:14:22.330Z,1.59
2022-07-27T04:15:24.994Z,1.38
2022-07-27T04:16:35.646Z,1.29
2022-07-27T04:17:56.221Z,1.42
2022-07-27T04:18:38.730Z,1.28
2022-07-27T04:19:41.407Z,1.26
2022-07-27T04:20:44.172Z,1.62
2022-07-27T04:21:46.951Z,1.67
2022-07-27T04:22:49.840Z,1.48
2022-07-27T04:23:58.432Z,1.47
2022-07-27T04:25:01.413Z,1.64
2022-07-27T04:26:04.178Z,1.62
2022-07-27T04:27:07.161Z,1.45
2022-07-27T04:28:09.830Z,1.38
2022-07-27T04:29:15.698Z,1.48
2022-07-27T04:30:16.922Z,1.21
2022-07-27T04:31:19.784Z,1.20
2022-07-27T04:32:22.659Z,1.28
2022-07-27T04:33:25.344Z,1.30
2022-07-27T04:34:28.099Z,1.21
2022-07-27T04:35:30.769Z,1.15
2022-07-27T04:36:33.445Z,1.62
2022-07-27T04:37:36.112Z,1.58
2022-07-27T04:38:38.883Z,1.26
2022-07-27T04:39:44.426Z,1.33
2022-07-27T04:40:47.192Z,1.44
2022-07-27T04:41:52.844Z,1.28
2022-07-27T04:42:55.395Z,1.16
2022-07-27T04:43:57.965Z,1.51
2022-07-27T04:45:01.468Z,1.25
2022-07-27T04:46:04.609Z,1.30
2022-07-27T04:47:07.417Z,1.72
2022-07-27T04:48:10.289Z,1.33
2022-07-27T04:49:16.576Z,1.61
2022-07-27T04:50:19.608Z,1.25
2022-07-27T04:51:22.492Z,1.17
2022-07-27T04:52:26.718Z,1.35
2022-07-27T04:53:29.472Z,1.51
2022-07-27T04:54:32.144Z,1.41
2022-07-27T04:55:34.815Z,1.12
2022-07-27T04:56:40.550Z,1.17
2022-07-27T04:57:43.119Z,1.17
2022-07-27T04:58:46.277Z,1.32
2022-07-27T04:59:49.562Z,1.42
2022-07-27T05:00:53.479Z,1.46
2022-07-27T05:01:56.641Z,1.32
2022-07-27T05:03:02.279Z,1.47
2022-07-27T05:04:05.591Z,1.53
2022-07-27T05:05:08.448Z,1.40
2022-07-27T05:06:11.421Z,1.32
2022-07-27T05:07:17.058Z,1.21
2022-07-27T05:08:23.305Z,1.35
2022-07-27T05:09:27.003Z,1.29
2022-07-27T05:10:29.980Z,1.34
2022-07-27T05:11:33.069Z,1.11
2022-07-27T05:12:36.454Z,1.13
2022-07-27T05:13:39.637Z,1.15
2022-07-27T05:14:43.123Z,1.08
2022-07-27T05:15:54.246Z,1.26
2022-07-27T05:16:53.471Z,1.22
2022-07-27T05:17:56.449Z,1.44
2022-07-27T05:18:59.644Z,1.13
2022-07-27T05:20:03.125Z,1.35
2022-07-27T05:21:05.998Z,1.39
2022-07-27T05:22:09.295Z,1.17
2022-07-27T05:23:12.162Z,1.20
2022-07-27T05:24:15.232Z,1.26
2022-07-27T05:25:19.543Z,1.16
2022-07-27T05:26:22.723Z,1.29
2022-07-27T05:27:25.904Z,1.18
2022-07-27T05:28:29.089Z,1.28
2022-07-27T05:29:32.475Z,1.59
2022-07-27T05:30:35.970Z,1.98
2022-07-27T05:31:39.150Z,1.22
2022-07-27T05:32:42.028Z,1.30
2022-07-27T05:33:48.584Z,1.28
2022-07-27T05:34:49.529Z,1.54
2022-07-27T05:35:52.922Z,1.47
2022-07-27T05:36:56.287Z,1.69
2022-07-27T05:37:59.685Z,1.25
2022-07-27T05:39:02.360Z,1.38
2022-07-27T05:40:05.213Z,1.26
2022-07-27T05:41:11.267Z,1.62
2022-07-27T05:42:14.242Z,1.67
2022-07-27T05:43:17.220Z,1.28
2022-07-27T05:44:20.301Z,1.19
2022-07-27T05:45:23.523Z,1.45
2022-07-27T05:46:32.451Z,1.47
2022-07-27T05:47:31.482Z,1.29
2022-07-27T05:48:35.825Z,1.37
2022-07-27T05:49:39.073Z,1.38
2022-07-27T05:50:42.157Z,1.50
2022-07-27T05:51:45.747Z,1.43
2022-07-27T05:52:48.727Z,1.35
2022-07-27T05:53:52.115Z,1.22
2022-07-27T05:54:55.287Z,1.34
2022-07-27T05:56:00.728Z,1.37
2022-07-27T05:57:03.503Z,1.72
2022-07-27T05:58:06.169Z,1.90
2022-07-27T05:59:12.390Z,1.48
2022-07-27T06:00:15.602Z,1.32
2022-07-27T06:01:18.396Z,1.26
2022-07-27T06:02:22.068Z,1.34
2022-07-27T06:03:25.504Z,1.28
2022-07-27T06:04:28.428Z,1.44
2022-07-27T06:05:37.460Z,1.18
2022-07-27T06:06:40.538Z,1.38
2022-07-27T06:07:44.432Z,1.39
2022-07-27T06:08:48.839Z,1.33
2022-07-27T06:09:52.031Z,1.22
2022-07-27T06:10:55.105Z,1.22
2022-07-27T06:11:58.286Z,1.05
2022-07-27T06:13:01.473Z,1.41
2022-07-27T06:14:04.343Z,1.28
2022-07-27T06:15:07.416Z,1.43
2022-07-27T06:16:10.838Z,1.54
2022-07-27T06:17:13.701Z,1.25
2022-07-27T06:18:16.774Z,1.18
2022-07-27T06:19:19.540Z,1.28
2022-07-27T06:20:22.312Z,1.37
2022-07-27T06:21:25.280Z,1.43
2022-07-27T06:22:28.476Z,1.84
2022-07-27T06:23:31.881Z,1.86
2022-07-27T06:24:34.930Z,1.75
2022-07-27T06:25:38.211Z,2.13
2022-07-27T06:26:41.391Z,2.00
2022-07-27T06:27:44.061Z,2.08
2022-07-27T06:28:47.139Z,1.80
2022-07-27T06:29:50.221Z,1.81
2022-07-27T06:30:55.865Z,1.50
2022-07-27T06:31:59.312Z,1.47
2022-07-27T06:33:02.738Z,1.61
2022-07-27T06:34:11.832Z,1.68
2022-07-27T06:35:09.920Z,1.63
2022-07-27T06:36:15.564Z,1.85
2022-07-27T06:37:18.717Z,1.89
2022-07-27T06:38:22.649Z,1.81
2022-07-27T06:39:26.436Z,1.75
2022-07-27T06:40:30.214Z,1.86
2022-07-27T06:41:33.217Z,1.86
2022-07-27T06:42:36.190Z,1.84
2022-07-27T06:43:39.267Z,2.08
2022-07-27T06:44:42.545Z,2.14
2022-07-27T06:45:45.428Z,2.16
2022-07-27T06:46:48.466Z,2.23
2022-07-27T06:47:51.395Z,2.29
2022-07-27T06:48:57.104Z,2.36
2022-07-27T06:50:00.400Z,1.99
2022-07-27T06:51:03.382Z,2.18
2022-07-27T06:52:06.564Z,2.17
2022-07-27T06:53:09.336Z,2.47
2022-07-27T06:54:12.215Z,1.98
2022-07-27T06:55:15.193Z,2.17
2022-07-27T06:56:18.064Z,1.89
2022-07-27T06:57:21.251Z,2.12
2022-07-27T06:58:27.387Z,1.85
2022-07-27T06:59:43.199Z,2.06
2022-07-27T07:00:35.161Z,1.97
2022-07-27T07:01:38.064Z,2.18
2022-07-27T07:02:41.352Z,2.38
2022-07-27T07:03:44.406Z,1.96
2022-07-27T07:04:47.301Z,1.79
2022-07-27T07:05:50.496Z,1.88
2022-07-27T07:06:53.562Z,2.00
2022-07-27T07:07:56.553Z,2.31
2022-07-27T07:08:59.728Z,2.23
2022-07-27T07:10:02.735Z,2.25
2022-07-27T07:11:05.702Z,2.22
2022-07-27T07:12:08.666Z,2.21
2022-07-27T07:13:11.347Z,2.34
2022-07-27T07:14:14.501Z,2.44
2022-07-27T07:15:17.386Z,2.88
2022-07-27T07:16:23.209Z,2.05
2022-07-27T07:17:26.204Z,2.44
2022-07-27T07:18:29.190Z,2.28
2022-07-27T07:19:38.504Z,1.96
2022-07-27T07:20:41.477Z,2.30
2022-07-27T07:21:44.767Z,2.35
2022-07-27T07:22:47.743Z,2.46
2022-07-27T07:23:50.830Z,2.29
2022-07-27T07:24:55.430Z,2.18
2022-07-27T07:25:58.825Z,3.66
2022-07-27T07:27:02.104Z,4.85
2022-07-27T07:28:05.096Z,3.51
2022-07-27T07:29:07.969Z,2.73
2022-07-27T07:30:10.729Z,2.42
2022-07-27T07:31:13.566Z,2.40
2022-07-27T07:32:16.476Z,2.50
2022-07-27T07:33:22.034Z,2.44
2022-07-27T07:34:24.801Z,2.57
2022-07-27T07:35:27.457Z,2.70
2022-07-27T07:36:33.204Z,2.43
2022-07-27T07:37:36.083Z,2.48
2022-07-27T07:38:39.161Z,2.49
2022-07-27T07:39:42.029Z,2.59
2022-07-27T07:40:45.412Z,2.55
2022-07-27T07:41:48.498Z,2.56
2022-07-27T07:42:51.785Z,2.71
2022-07-27T07:43:54.967Z,2.63
2022-07-27T07:44:57.959Z,2.80
2022-07-27T07:46:00.709Z,2.89
2022-07-27T07:47:03.474Z,2.44
2022-07-27T07:48:06.462Z,2.69
2022-07-27T07:49:10.079Z,2.68
2022-07-27T07:50:12.934Z,2.61
2022-07-27T07:51:15.811Z,2.87
2022-07-27T07:52:18.984Z,2.89
2022-07-27T07:53:21.971Z,2.68
2022-07-27T07:54:25.039Z,2.72
2022-07-27T07:55:27.824Z,2.31
2022-07-27T07:56:31.321Z,3.02
2022-07-27T07:57:34.294Z,4.68
2022-07-27T07:58:37.163Z,2.95
2022-07-27T07:59:40.233Z,3.42
2022-07-27T08:00:43.105Z,3.38
2022-07-27T08:01:45.941Z,2.90
2022-07-27T08:02:48.816Z,2.96
2022-07-27T08:03:51.839Z,2.88
2022-07-27T08:04:54.603Z,2.85
2022-07-27T08:05:57.582Z,3.08
2022-07-27T08:07:00.455Z,2.95
2022-07-27T08:08:03.334Z,2.72
2022-07-27T08:09:06.312Z,2.82
2022-07-27T08:10:09.182Z,2.91
2022-07-27T08:11:12.056Z,3.14
2022-07-27T08:12:15.339Z,3.32
2022-07-27T08:13:21.894Z,3.57
2022-07-27T08:14:22.736Z,3.24
2022-07-27T08:15:29.875Z,3.20
2022-07-27T08:16:30.080Z,3.49
2022-07-27T08:17:33.092Z,3.25
2022-07-27T08:18:35.966Z,3.28
2022-07-27T08:19:40.344Z,3.05
2022-07-27T08:20:43.460Z,3.17
2022-07-27T08:21:46.343Z,3.10
2022-07-27T08:22:49.312Z,2.94
2022-07-27T08:23:52.285Z,3.55
2022-07-27T08:24:55.669Z,3.62
2022-07-27T08:26:00.045Z,3.45
2022-07-27T08:27:02.863Z,3.65
2022-07-27T08:28:05.808Z,3.71
2022-07-27T08:29:13.782Z,3.69
2022-07-27T08:30:14.551Z,4.01
2022-07-27T08:31:24.571Z,3.98
2022-07-27T08:32:22.547Z,3.94
2022-07-27T08:33:25.325Z,4.17
2022-07-27T08:34:28.197Z,4.30
2022-07-27T08:35:31.385Z,3.89
2022-07-27T08:36:34.155Z,3.88
2022-07-27T08:37:36.824Z,4.05
2022-07-27T08:38:39.694Z,4.03
2022-07-27T08:40:37.928Z,4.15
2022-07-27T08:40:47.697Z,3.90
2022-07-27T08:41:51.088Z,3.67
2022-07-27T08:42:54.266Z,3.73
2022-07-27T08:43:57.344Z,3.90
2022-07-27T08:45:00.249Z,4.21
2022-07-27T08:46:03.296Z,3.93
2022-07-27T08:47:06.232Z,4.24
2022-07-27T08:48:09.255Z,3.51
2022-07-27T08:49:12.367Z,3.49
2022-07-27T08:50:15.618Z,3.58
2022-07-27T08:51:18.520Z,3.18
2022-07-27T08:52:21.574Z,2.99
2022-07-27T08:53:24.241Z,2.81
2022-07-27T08:54:27.243Z,3.08
2022-07-27T08:55:30.098Z,2.92
2022-07-27T08:56:33.072Z,3.03
2022-07-27T08:57:36.149Z,3.02
2022-07-27T08:58:39.331Z,3.35
2022-07-27T08:59:42.540Z,3.37
2022-07-27T09:00:47.060Z,3.08
2022-07-27T09:01:50.704Z,3.47
2022-07-27T09:02:53.780Z,3.41
2022-07-27T09:03:56.878Z,3.53
2022-07-27T09:05:00.059Z,3.64
2022-07-27T09:06:03.153Z,3.37
2022-07-27T09:07:06.022Z,3.21
2022-07-27T09:08:08.892Z,3.12
2022-07-27T09:09:11.882Z,3.18
2022-07-27T09:10:14.946Z,3.15
2022-07-27T09:11:17.720Z,3.30
2022-07-27T09:12:20.699Z,3.32
2022-07-27T09:13:23.490Z,3.46
2022-07-27T09:14:26.241Z,3.80
2022-07-27T09:15:34.485Z,3.22
2022-07-27T09:17:14.762Z,3.32
2022-07-27T09:17:48.529Z,3.04
2022-07-27T09:18:42.864Z,3.27
2022-07-27T09:19:45.740Z,3.20
2022-07-27T09:20:48.816Z,3.28
2022-07-27T09:21:51.888Z,3.42
2022-07-27T09:22:55.180Z,3.53
2022-07-27T09:23:58.053Z,3.55
2022-07-27T09:25:03.998Z,2.95
2022-07-27T09:26:16.717Z,3.17
2022-07-27T09:27:11.179Z,3.04
2022-07-27T09:28:14.361Z,2.85
2022-07-27T09:29:17.605Z,2.75
2022-07-27T09:30:20.419Z,3.02
2022-07-27T09:31:23.136Z,2.91
2022-07-27T09:32:25.963Z,2.65
2022-07-27T09:33:28.867Z,3.01
2022-07-27T09:34:33.142Z,2.70
2022-07-27T09:35:35.921Z,2.70
2022-07-27T09:36:38.687Z,3.03
2022-07-27T09:37:41.367Z,2.77
2022-07-27T09:38:44.134Z,2.84
2022-07-27T09:39:46.910Z,2.58
2022-07-27T09:40:49.947Z,2.83
2022-07-27T09:41:52.959Z,2.95
2022-07-27T09:43:09.093Z,2.79
2022-07-27T09:45:06.498Z,3.13
2022-07-27T09:46:09.531Z,2.73
2022-07-27T09:47:12.152Z,2.86
2022-07-27T09:48:15.018Z,2.55
2022-07-27T09:49:18.054Z,2.84
2022-07-27T09:50:20.772Z,2.88
2022-07-27T09:51:58.413Z,2.52
2022-07-27T09:52:28.162Z,2.43
2022-07-27T09:53:43.446Z,2.19
2022-07-27T09:54:35.859Z,2.47
2022-07-27T09:55:38.730Z,2.42
2022-07-27T09:56:41.818Z,2.38
2022-07-27T09:57:44.779Z,2.48
2022-07-27T09:58:47.758Z,2.62
2022-07-27T09:59:50.943Z,2.22
2022-07-27T10:00:54.017Z,2.36
2022-07-27T10:01:57.075Z,2.27
2022-07-27T10:03:00.178Z,1.85
2022-07-27T10:04:03.284Z,2.16
2022-07-27T10:05:06.230Z,2.26
2022-07-27T10:06:09.212Z,2.16
2022-07-27T10:07:13.762Z,2.04
2022-07-27T10:08:16.599Z,1.89
2022-07-27T10:09:19.277Z,2.07
2022-07-27T10:10:22.177Z,1.95
2022-07-27T10:11:24.920Z,2.04
2022-07-27T10:12:27.995Z,1.92
2022-07-27T10:13:30.871Z,1.81
2022-07-27T10:14:33.752Z,1.68
2022-07-27T10:15:37.385Z,1.77
2022-07-27T10:16:40.417Z,1.60
2022-07-27T10:17:44.087Z,1.58
2022-07-27T10:18:50.755Z,1.56
2022-07-27T10:19:54.776Z,1.85
2022-07-27T10:20:58.057Z,1.47
2022-07-27T10:22:01.040Z,1.37
2022-07-27T10:23:03.910Z,1.25
2022-07-27T10:24:08.426Z,1.34
2022-07-27T10:25:14.266Z,1.52
2022-07-27T10:26:20.233Z,1.47
2022-07-27T10:27:22.884Z,1.33
2022-07-27T10:28:25.658Z,1.41
2022-07-27T10:29:28.323Z,1.42
2022-07-27T10:30:33.908Z,1.35
2022-07-27T10:31:37.086Z,1.07
2022-07-27T10:32:40.023Z,1.14
2022-07-27T10:33:45.865Z,1.43
2022-07-27T10:34:48.740Z,1.31
2022-07-27T10:35:54.324Z,1.36
2022-07-27T10:36:57.562Z,1.25
2022-07-27T10:38:00.435Z,1.45
2022-07-27T10:39:06.492Z,1.54
2022-07-27T10:40:09.458Z,1.64
2022-07-27T10:41:12.239Z,1.53
2022-07-27T10:42:17.779Z,1.45
2022-07-27T10:43:20.438Z,1.45
2022-07-27T10:44:26.183Z,1.42
2022-07-27T10:45:50.245Z,1.16
2022-07-27T10:46:36.096Z,1.27
2022-07-27T10:47:41.868Z,1.34
2022-07-27T10:48:49.035Z,1.46
2022-07-27T10:49:49.362Z,1.36
2022-07-27T10:50:52.551Z,1.15
2022-07-27T10:51:55.426Z,1.28
2022-07-27T10:53:01.263Z,1.39
2022-07-27T10:54:12.404Z,1.37
2022-07-27T10:55:08.445Z,1.19
2022-07-27T10:56:17.261Z,1.22
2022-07-27T10:57:23.010Z,1.42
2022-07-27T10:58:25.673Z,1.26
2022-07-27T10:59:39.988Z,1.08
2022-07-27T11:00:42.209Z,1.09
2022-07-27T11:01:45.623Z,1.14
2022-07-27T11:02:48.641Z,1.17
2022-07-27T11:03:51.670Z,1.02
2022-07-27T11:04:54.693Z,1.02
2022-07-27T11:06:01.310Z,1.07
2022-07-27T11:07:24.162Z,1.27
2022-07-27T11:10:27.092Z,1.18
2022-07-27T11:11:29.860Z,1.10
2022-07-27T11:12:32.635Z,1.16
2022-07-27T11:13:39.014Z,1.32
2022-07-27T11:14:39.819Z,1.05
2022-07-27T11:15:43.833Z,1.08
2022-07-27T11:16:55.917Z,1.04
2022-07-27T11:18:00.638Z,1.30
2022-07-27T11:18:58.251Z,1.34
2022-07-27T11:20:04.023Z,1.14
2022-07-27T11:21:09.671Z,1.22
2022-07-27T11:22:28.282Z,1.24
2022-07-27T11:24:20.946Z,1.19
2022-07-27T11:25:23.820Z,1.13
2022-07-27T11:26:29.358Z,1.12
2022-07-27T11:27:38.277Z,1.04
2022-07-27T11:28:40.958Z,1.03
2022-07-27T11:29:43.952Z,1.08
2022-07-27T11:30:46.775Z,1.38
2022-07-27T11:31:58.306Z,1.33
2022-07-27T11:32:53.997Z,1.35
2022-07-27T11:33:59.515Z,1.08
2022-07-27T11:35:09.065Z,1.07
2022-07-27T11:36:09.976Z,0.99
2022-07-27T11:37:15.210Z,0.90
2022-07-27T11:38:18.094Z,1.01
2022-07-27T11:39:54.309Z,1.16
2022-07-27T11:40:56.408Z,2.45
2022-07-27T11:41:55.828Z,1.24
2022-07-27T11:42:34.087Z,1.39
2022-07-27T11:43:40.443Z,1.22
2022-07-27T11:44:44.650Z,1.31
2022-07-27T11:45:51.849Z,1.21
2022-07-27T11:46:58.542Z,1.22
2022-07-27T11:47:59.520Z,1.11
2022-07-27T11:49:07.468Z,1.09
2022-07-27T11:50:07.096Z,1.27
2022-07-27T11:51:12.897Z,1.06
2022-07-27T11:52:15.726Z,1.07
2022-07-27T11:53:21.670Z,1.22
2022-07-27T11:54:24.451Z,1.17
2022-07-27T11:55:27.115Z,0.92
2022-07-27T11:56:32.649Z,0.98
2022-07-27T11:57:38.198Z,1.16
2022-07-27T11:58:41.779Z,1.16
2022-07-27T11:59:47.336Z,1.10
2022-07-27T12:00:50.194Z,0.96
2022-07-27T12:01:53.137Z,0.95
2022-07-27T12:02:59.118Z,1.32
2022-07-27T12:04:07.727Z,1.16
2022-07-27T12:05:10.554Z,1.11
2022-07-27T12:06:13.473Z,1.08
2022-07-27T12:07:16.146Z,1.00
2022-07-27T12:08:19.125Z,1.03
2022-07-27T12:09:24.961Z,1.21
2022-07-27T12:10:27.641Z,1.21
2022-07-27T12:11:34.266Z,1.06
2022-07-27T12:12:35.233Z,1.03
2022-07-27T12:13:38.103Z,1.14
2022-07-27T12:14:41.076Z,1.08
2022-07-27T12:15:46.473Z,1.03
2022-07-27T12:16:51.115Z,1.15
2022-07-27T12:17:59.843Z,1.09
2022-07-27T12:19:02.817Z,1.02
2022-07-27T12:20:05.922Z,0.99
2022-07-27T12:21:09.485Z,1.34
2022-07-27T12:22:15.227Z,1.05
2022-07-27T12:23:20.763Z,1.14
2022-07-27T12:24:23.436Z,1.00
2022-07-27T12:25:29.281Z,1.02
2022-07-27T12:26:32.156Z,1.10
2022-07-27T12:27:35.133Z,1.04
2022-07-27T12:28:40.565Z,1.16
2022-07-27T12:29:46.207Z,1.03
2022-07-27T12:30:49.287Z,1.07
2022-07-27T12:31:52.269Z,1.11
2022-07-27T12:32:55.753Z,0.94
2022-07-27T12:34:06.174Z,1.08
2022-07-27T12:35:06.005Z,1.13
2022-07-27T12:36:08.879Z,1.22
2022-07-27T12:37:14.732Z,1.19
2022-07-27T12:38:20.162Z,1.24
2022-07-27T12:39:22.828Z,1.19
2022-07-27T12:40:25.600Z,1.08
2022-07-27T12:41:31.443Z,1.13
2022-07-27T12:42:37.088Z,1.28
2022-07-27T12:43:39.751Z,1.21
2022-07-27T12:44:42.525Z,1.07
2022-07-27T12:45:45.416Z,1.22
2022-07-27T12:46:48.174Z,1.24
2022-07-27T12:47:57.092Z,1.10
2022-07-27T12:49:02.808Z,1.04
2022-07-27T12:50:05.498Z,1.05
2022-07-27T12:51:11.195Z,1.07
2022-07-27T12:52:14.121Z,1.18
2022-07-27T12:53:16.800Z,1.20
2022-07-27T12:54:19.561Z,1.12
2022-07-27T12:55:28.170Z,1.13
2022-07-27T12:56:30.943Z,1.18
2022-07-27T12:57:54.648Z,1.18
2022-07-27T12:58:41.196Z,1.26
2022-07-27T12:59:47.043Z,0.98
2022-07-27T13:01:01.887Z,1.15
2022-07-27T13:02:04.902Z,1.10
2022-07-27T13:03:07.954Z,1.08
2022-07-27T13:04:10.831Z,1.08
2022-07-27T13:05:13.599Z,1.06
2022-07-27T13:06:16.475Z,1.04
2022-07-27T13:07:19.247Z,1.24
2022-07-27T13:08:22.132Z,1.12
2022-07-27T13:09:24.893Z,1.11
2022-07-27T13:10:32.478Z,1.17
2022-07-27T13:11:35.455Z,1.11
2022-07-27T13:12:38.335Z,1.16
2022-07-27T13:13:44.171Z,1.08
2022-07-27T13:14:47.052Z,1.10
2022-07-27T13:15:50.024Z,1.12
2022-07-27T13:16:53.032Z,1.31
2022-07-27T13:17:59.053Z,1.08
2022-07-27T13:19:04.493Z,1.15
2022-07-27T13:20:07.561Z,0.97
2022-07-27T13:21:10.334Z,1.05
2022-07-27T13:22:13.327Z,0.99
2022-07-27T13:23:19.051Z,0.95
2022-07-27T13:24:21.824Z,0.95
2022-07-27T13:25:24.604Z,0.97
2022-07-27T13:26:30.137Z,0.94
2022-07-27T13:27:33.147Z,1.11
2022-07-27T13:28:38.660Z,0.94
2022-07-27T13:29:44.290Z,1.11
2022-07-27T13:30:46.965Z,1.19
2022-07-27T13:31:56.662Z,1.14
2022-07-27T13:32:54.148Z,1.36
2022-07-27T13:33:59.683Z,1.19
2022-07-27T13:35:05.230Z,1.27
2022-07-27T13:36:10.756Z,1.15
2022-07-27T13:37:13.424Z,0.95
2022-07-27T13:38:16.829Z,0.95
2022-07-27T13:39:19.589Z,1.10
2022-07-27T13:40:25.324Z,0.98
2022-07-27T13:41:27.995Z,1.07
2022-07-27T13:42:36.812Z,1.15
2022-07-27T13:43:39.645Z,1.17
2022-07-27T13:45:03.889Z,1.22
2022-07-27T13:45:47.041Z,1.14
2022-07-27T13:46:52.916Z,0.96
2022-07-27T13:47:56.522Z,1.06
2022-07-27T13:49:02.113Z,1.08
2022-07-27T13:50:05.253Z,1.11
2022-07-27T13:51:08.283Z,1.19
2022-07-27T13:52:11.382Z,1.37
2022-07-27T13:53:15.136Z,1.03
2022-07-27T13:54:21.856Z,1.13
2022-07-27T13:55:28.398Z,1.26
2022-07-27T13:56:31.378Z,0.94
2022-07-27T13:57:34.363Z,1.04
2022-07-27T13:58:37.231Z,1.06
2022-07-27T13:59:43.386Z,1.15
2022-07-27T14:00:46.867Z,0.93
2022-07-27T14:01:49.921Z,0.99
2022-07-27T14:02:52.794Z,1.01
2022-07-27T14:03:55.599Z,1.18
2022-07-27T14:04:58.780Z,1.25
2022-07-27T14:06:01.556Z,1.46
2022-07-27T14:07:04.327Z,1.12
2022-07-27T14:08:06.994Z,1.08
2022-07-27T14:09:10.002Z,1.17